Aviation Digital Data Service (ADDS)

Output produced by METARs form (2010 UTC 20 August 2019)
found at http://www.aviationweather.gov/metar/data/
 
Forecast for: YPPH (PERTH INTL/BELMO, AU)
Text: TAF YPPH 201711Z 2018/2124 08011KT CAVOK
Forecast period: 1800 UTC 20 August 2019 to 0100 UTC 21 August 2019
Forecast type: FROM: standard forecast or significant change
Winds: from the E (80 degrees) at 13 MPH (11 knots; 5.7 m/s)
Visibility: 6 or more miles 10+ km)
Ceiling: unknown
Clouds: missing
Weather: NSW  (no significant weather)
Text: BECMG 2101/2103 02012KT CAVOK
Forecast period: 0100 to 1000 UTC 21 August 2019
Forecast type: BECOMING: Conditions expected to become as follows by 0300 UTC 21 August 2019
Winds: from the NNE (20 degrees) at 14 MPH (12 knots; 6.2 m/s)
Visibility: 6 or more miles 10+ km)
Ceiling: unknown
Clouds: missing
Weather: NSW  (no significant weather)
Text: FM211000 05008KT CAVOK
Forecast period: 1000 UTC 21 August 2019 to 0000 UTC 22 August 2019
Forecast type: FROM: standard forecast or significant change
Winds: from the NE (50 degrees) at 9 MPH (8 knots; 4.1 m/s)
Visibility: 6 or more miles 10+ km)
Ceiling: unknown
Clouds: missing
Weather: NSW  (no significant weather)